Time;durP1;ratioP1;P1;durP2;ratioP2;P2;SDS_P1;SDS_P2;PMS_P1;PMS_P2;Temp;Humidity;BMP_temperature;BMP_pressure;BME280_temperature;BME280_humidity;BME280_pressure;Samples;Min_cycle;Max_cycle;Signal;HPM_P1;HPM_P2
2021/08/04 00:01:09;;;;;;;6.17;3.07;;;;;;;15.92;100.00;100984.56;3609915;39;20803;-53
2021/08/04 00:03:37;;;;;;;5.77;2.23;;;;;;;15.74;100.00;100978.06;3619050;39;20749;-52
2021/08/04 00:06:05;;;;;;;5.33;2.10;;;;;;;15.51;100.00;100982.69;3616031;39;20486;-55
2021/08/04 00:08:34;;;;;;;5.47;2.40;;;;;;;15.08;100.00;100985.06;3593598;39;20548;-51
2021/08/04 00:11:01;;;;;;;3.23;1.80;;;;;;;15.06;100.00;100989.31;3619510;39;20496;-51
2021/08/04 00:13:29;;;;;;;7.30;2.40;;;;;;;15.08;100.00;100987.66;3620814;39;20503;-53
2021/08/04 00:15:57;;;;;;;4.57;2.50;;;;;;;15.10;100.00;100985.97;3609111;39;21135;-53
2021/08/04 00:18:25;;;;;;;4.93;2.27;;;;;;;15.35;100.00;100986.63;3619680;39;20492;-54
2021/08/04 00:20:52;;;;;;;3.53;2.07;;;;;;;15.30;100.00;100988.22;3617448;39;20473;-54
2021/08/04 00:23:20;;;;;;;6.33;2.20;;;;;;;15.20;100.00;100980.19;3619563;39;20816;-52
2021/08/04 00:25:49;;;;;;;4.13;2.00;;;;;;;15.20;100.00;100979.31;3618934;39;20461;-53
2021/08/04 00:28:16;;;;;;;5.60;2.07;;;;;;;15.18;100.00;100976.66;3620609;39;20568;-52
2021/08/04 00:30:44;;;;;;;5.07;2.33;;;;;;;15.16;100.00;100980.94;3615886;39;20470;-51
2021/08/04 00:33:12;;;;;;;5.47;2.27;;;;;;;15.18;100.00;100978.41;3620560;39;20509;-48
2021/08/04 00:35:39;;;;;;;4.47;2.57;;;;;;;15.07;100.00;100978.97;3618275;39;20528;-52
2021/08/04 00:38:10;;;;;;;8.17;2.80;;;;;;;15.33;100.00;100990.91;3620395;39;20499;-50
2021/08/04 00:40:38;;;;;;;5.80;2.80;;;;;;;15.33;100.00;100993.50;3619372;39;20597;-50
2021/08/04 00:43:07;;;;;;;5.10;2.60;;;;;;;15.34;100.00;100979.69;3619655;39;21155;-54
2021/08/04 00:45:36;;;;;;;9.87;2.60;;;;;;;15.31;100.00;100990.88;3617398;39;20508;-51
2021/08/04 00:48:04;;;;;;;6.10;2.30;;;;;;;15.22;100.00;100981.09;3620402;39;20510;-53
2021/08/04 00:50:32;;;;;;;6.03;2.37;;;;;;;15.00;100.00;100984.84;3595320;39;20734;-51
2021/08/04 00:53:00;;;;;;;4.33;2.70;;;;;;;14.98;100.00;100986.53;3621985;39;20462;-52
2021/08/04 00:55:28;;;;;;;5.43;2.97;;;;;;;15.10;100.00;100983.38;3621561;39;20508;-52
2021/08/04 00:57:56;;;;;;;4.27;2.30;;;;;;;14.97;100.00;100985.66;3621219;39;20513;-50
2021/08/04 01:00:25;;;;;;;6.53;2.40;;;;;;;14.86;100.00;100981.88;3619845;39;20719;-50
2021/08/04 01:02:58;;;;;;;4.83;2.63;;;;;;;14.95;100.00;100989.03;3621531;39;20515;-52
2021/08/04 01:05:27;;;;;;;6.20;2.80;;;;;;;14.80;100.00;100989.50;3619732;39;20502;-54
2021/08/04 01:08:00;;;;;;;4.97;2.73;;;;;;;14.88;100.00;100990.59;3621723;39;20520;-50
2021/08/04 01:10:30;;;;;;;3.90;2.73;;;;;;;14.95;100.00;100991.63;3621030;39;20555;-53
2021/08/04 01:13:05;;;;;;;5.23;3.10;;;;;;;14.84;100.00;100993.94;3621564;39;20503;-52
2021/08/04 01:15:37;;;;;;;4.40;2.67;;;;;;;14.92;100.00;100997.63;3618474;39;20515;-55
2021/08/04 01:18:06;;;;;;;4.77;2.90;;;;;;;14.88;100.00;100994.91;3616283;39;20499;-52
2021/08/04 01:20:34;;;;;;;6.17;3.23;;;;;;;14.88;100.00;100993.19;3619396;39;20835;-53
2021/08/04 01:23:20;;;;;;;5.17;2.60;;;;;;;14.92;100.00;101002.81;3619044;39;20511;-53
2021/08/04 01:25:54;;;;;;;11.07;2.90;;;;;;;15.06;100.00;101004.91;3619205;39;20471;-51
2021/08/04 01:28:28;;;;;;;7.23;2.87;;;;;;;15.08;100.00;101003.25;3619270;39;20507;-54
2021/08/04 01:30:59;;;;;;;15.03;3.53;;;;;;;15.06;100.00;101004.91;3617230;39;20719;-52
2021/08/04 01:33:28;;;;;;;7.87;3.00;;;;;;;14.89;100.00;101005.34;3621936;39;20838;-48
2021/08/04 01:35:56;;;;;;;4.70;3.20;;;;;;;15.01;100.00;100997.00;3618806;39;20476;-53
2021/08/04 01:38:24;;;;;;;6.70;3.37;;;;;;;14.94;100.00;101001.16;3620461;39;20491;-52
2021/08/04 01:40:53;;;;;;;6.00;3.10;;;;;;;15.06;100.00;101004.91;3620020;39;20483;-52
2021/08/04 01:43:23;;;;;;;8.30;3.17;;;;;;;15.06;100.00;101002.31;3621922;39;20507;-52
2021/08/04 01:45:54;;;;;;;6.87;3.67;;;;;;;15.09;100.00;101010.22;3619526;39;20464;-49
2021/08/04 01:48:22;;;;;;;7.20;3.43;;;;;;;14.84;100.00;101010.41;3621673;39;20712;-50
2021/08/04 01:50:52;;;;;;;4.50;3.30;;;;;;;14.88;100.00;101015.69;3619861;39;20468;-52
2021/08/04 01:53:20;;;;;;;9.90;3.87;;;;;;;14.87;100.00;101004.41;3621245;39;20540;-49
2021/08/04 01:55:48;;;;;;;5.07;3.37;;;;;;;14.94;100.00;101008.97;3620713;39;20481;-52
2021/08/04 01:58:16;;;;;;;5.67;3.30;;;;;;;14.81;100.00;101014.63;3621871;39;20503;-54
2021/08/04 02:00:45;;;;;;;5.63;3.23;;;;;;;15.03;100.00;101015.25;3619338;39;20695;-52
2021/08/04 02:03:13;;;;;;;6.60;3.50;;;;;;;15.02;100.00;100998.75;3620002;39;20706;-52
2021/08/04 02:05:41;;;;;;;5.87;4.00;;;;;;;14.92;100.00;101005.41;3620010;39;21053;-51
2021/08/04 02:08:16;;;;;;;6.80;4.00;;;;;;;14.62;100.00;101008.91;3621489;39;20748;-51
2021/08/04 02:10:47;;;;;;;9.23;4.27;;;;;;;14.63;100.00;101008.06;3618846;39;20466;-52
2021/08/04 02:13:23;;;;;;;5.67;3.83;;;;;;;14.71;100.00;101003.06;3621265;39;20515;-51
2021/08/04 02:16:19;;;;;;;8.10;4.20;;;;;;;14.59;100.00;101006.19;3619570;39;20474;-54
2021/08/04 02:18:50;;;;;;;9.80;4.27;;;;;;;14.54;100.00;101005.16;3621603;39;20509;-50
2021/08/04 02:21:19;;;;;;;7.77;3.83;;;;;;;14.66;100.00;101009.88;3593272;39;20480;-52
2021/08/04 02:23:48;;;;;;;8.33;3.70;;;;;;;14.27;100.00;101006.13;3621464;39;20507;-51
2021/08/04 02:26:17;;;;;;;5.53;4.00;;;;;;;14.13;100.00;101006.56;3619676;39;20475;-51
2021/08/04 02:28:49;;;;;;;8.13;4.00;;;;;;;14.39;100.00;101001.28;3621364;39;20515;-52
2021/08/04 02:31:19;;;;;;;6.20;4.10;;;;;;;14.14;100.00;101005.75;3618414;39;20476;-50
2021/08/04 02:33:47;;;;;;;5.73;3.90;;;;;;;14.20;100.00;101009.34;3621536;39;20506;-49
2021/08/04 02:36:14;;;;;;;5.43;3.70;;;;;;;14.01;100.00;101009.66;3616642;39;20467;-50
2021/08/04 02:38:44;;;;;;;6.50;3.80;;;;;;;14.09;100.00;101006.44;3621048;39;20603;-48
2021/08/04 02:41:13;;;;;;;10.00;4.50;;;;;;;14.12;100.00;101015.19;3616287;39;20486;-52
2021/08/04 02:43:40;;;;;;;6.43;4.30;;;;;;;14.08;100.00;101015.91;3621442;39;20495;-52
2021/08/04 02:46:08;;;;;;;12.43;4.67;;;;;;;13.96;100.00;101015.53;3616363;39;20792;-52
2021/08/04 02:48:37;;;;;;;8.30;4.40;;;;;;;14.08;100.00;101010.72;3621195;39;20498;-53
2021/08/04 02:51:09;;;;;;;7.30;4.60;;;;;;;14.14;100.00;101010.94;3612779;39;20475;-50
2021/08/04 02:53:37;;;;;;;6.93;4.50;;;;;;;14.17;100.00;100999.75;3594629;39;20510;-53
2021/08/04 02:56:05;;;;;;;6.80;4.20;;;;;;;14.11;100.00;101010.81;3602270;39;20487;-50
2021/08/04 02:58:37;;;;;;;8.53;4.87;;;;;;;14.11;100.00;101003.03;3621540;39;20499;-53
2021/08/04 03:01:06;;;;;;;8.37;5.17;;;;;;;14.16;100.00;101009.25;3592229;39;20474;-53
2021/08/04 03:03:34;;;;;;;8.53;4.40;;;;;;;14.13;100.00;101003.97;3621374;39;20568;-53
2021/08/04 03:06:03;;;;;;;9.37;4.80;;;;;;;14.08;100.00;101005.53;3614483;39;20478;-52
2021/08/04 03:08:31;;;;;;;10.47;5.37;;;;;;;14.04;100.00;101011.47;3620851;39;20825;-53
2021/08/04 03:10:58;;;;;;;7.10;5.13;;;;;;;13.94;100.00;101012.88;3611675;39;20537;-50
2021/08/04 03:13:27;;;;;;;11.20;5.40;;;;;;;13.88;100.00;101005.81;3620814;39;20495;-53
2021/08/04 03:15:55;;;;;;;10.23;5.60;;;;;;;13.98;100.00;101011.25;3620283;39;20476;-51
2021/08/04 03:18:23;;;;;;;9.13;5.30;;;;;;;14.14;100.00;101021.31;3621302;39;20513;-49
2021/08/04 03:20:50;;;;;;;8.50;5.03;;;;;;;14.24;100.00;101021.56;3615664;39;20687;-49
2021/08/04 03:23:19;;;;;;;12.00;5.60;;;;;;;14.29;100.00;101025.19;3602820;39;20501;-52
2021/08/04 03:25:47;;;;;;;10.70;5.83;;;;;;;14.37;100.00;101018.56;3620090;39;20481;-52
2021/08/04 03:28:15;;;;;;;9.30;6.07;;;;;;;14.27;100.00;101021.69;3621173;39;20510;-52
2021/08/04 03:30:42;;;;;;;16.40;5.40;;;;;;;14.23;100.00;101020.72;3618813;39;20540;-49
2021/08/04 03:33:10;;;;;;;8.27;4.83;;;;;;;14.05;100.00;101021.00;3620321;39;20514;-52
2021/08/04 03:35:37;;;;;;;50.20;29.37;;;;;;;14.06;100.00;101017.59;3593318;39;20499;-53
2021/08/04 03:38:05;;;;;;;9.80;5.60;;;;;;;13.94;100.00;101033.63;3621140;39;20845;-53
2021/08/04 03:40:34;;;;;;;27.33;16.10;;;;;;;14.11;100.00;101033.31;3594004;39;20545;-52
2021/08/04 03:43:02;;;;;;;8.93;5.40;;;;;;;14.07;100.00;101024.53;3619795;39;20494;-49
2021/08/04 03:45:30;;;;;;;12.57;6.10;;;;;;;14.15;100.00;101019.59;3619234;39;20498;-51
2021/08/04 03:47:57;;;;;;;29.70;17.27;;;;;;;13.96;100.00;101026.81;3619337;39;20479;-49
2021/08/04 03:50:25;;;;;;;25.73;15.67;;;;;;;14.10;100.00;101029.81;3602216;39;20524;-52
2021/08/04 03:52:53;;;;;;;13.60;7.50;;;;;;;14.09;100.00;101038.44;3619999;39;20506;-50
2021/08/04 03:55:21;;;;;;;10.70;6.00;;;;;;;13.94;100.00;101040.56;3620258;39;20496;-54
2021/08/04 03:57:50;;;;;;;9.97;6.23;;;;;;;14.30;100.00;101037.34;3620277;39;20494;-51
2021/08/04 04:00:19;;;;;;;16.63;6.63;;;;;;;14.22;100.00;101033.63;3621100;39;20506;-50
2021/08/04 04:02:47;;;;;;;19.00;9.93;;;;;;;14.45;100.00;101036.94;3619716;39;20464;-54
2021/08/04 04:05:17;;;;;;;9.57;6.30;;;;;;;14.19;100.00;101034.41;3620938;39;20575;-49
2021/08/04 04:07:46;;;;;;;10.43;5.93;;;;;;;14.26;100.00;101038.09;3620019;39;20458;-53
2021/08/04 04:10:14;;;;;;;9.63;5.87;;;;;;;14.30;100.00;101037.34;3620862;39;20505;-52
2021/08/04 04:12:41;;;;;;;8.10;5.40;;;;;;;14.08;100.00;101036.69;3620114;39;20495;-50
2021/08/04 04:15:11;;;;;;;13.50;6.47;;;;;;;14.39;100.00;101041.94;3618671;39;20498;-51
2021/08/04 04:17:39;;;;;;;10.00;5.90;;;;;;;14.63;100.00;101033.13;3613151;39;20507;-53
2021/08/04 04:20:11;;;;;;;8.07;5.43;;;;;;;14.56;100.00;101030.34;3620804;39;20502;-51
2021/08/04 04:22:43;;;;;;;9.00;5.17;;;;;;;14.50;100.00;101030.16;3609539;39;20731;-49
2021/08/04 04:25:13;;;;;;;15.20;5.17;;;;;;;14.54;100.00;101031.13;3622741;39;20513;-53
2021/08/04 04:27:40;;;;;;;8.93;4.73;;;;;;;14.43;100.00;101031.72;3621165;39;20520;-53
2021/08/04 04:30:12;;;;;;;5.70;3.80;;;;;;;14.37;100.00;101036.72;3621780;39;20514;-49
2021/08/04 04:32:40;;;;;;;7.80;4.00;;;;;;;14.35;100.00;101040.97;3613550;39;20467;-50
2021/08/04 04:35:09;;;;;;;9.10;3.97;;;;;;;14.18;100.00;101036.16;3621800;39;20503;-52
2021/08/04 04:37:36;;;;;;;13.43;5.97;;;;;;;14.58;100.00;101038.19;3620340;39;20726;-51
2021/08/04 04:40:05;;;;;;;14.70;5.83;;;;;;;14.59;100.00;101039.94;3618634;39;20510;-51
2021/08/04 04:42:32;;;;;;;11.37;5.20;;;;;;;14.81;100.00;101045.78;3620270;39;20461;-52
2021/08/04 04:45:00;;;;;;;6.07;3.33;;;;;;;14.65;100.00;101045.31;3622142;39;20818;-51
2021/08/04 04:47:29;;;;;;;6.50;4.27;;;;;;;14.66;100.00;101041.03;3613010;39;20802;-53
2021/08/04 04:49:57;;;;;;;5.10;3.10;;;;;;;14.69;100.00;101042.00;3622226;39;20512;-51
2021/08/04 04:52:24;;;;;;;8.60;5.60;;;;;;;14.88;100.00;101047.75;3620907;39;20495;-51
2021/08/04 04:54:52;;;;;;;4.10;2.33;;;;;;;14.89;100.00;101044.31;3621481;39;20721;-53
2021/08/04 04:57:20;;;;;;;6.50;2.80;;;;;;;14.98;100.00;101049.75;3620522;39;20472;-51
2021/08/04 04:59:47;;;;;;;4.30;2.67;;;;;;;14.86;100.00;101041.63;3621550;39;20512;-51
2021/08/04 05:02:15;;;;;;;6.10;2.80;;;;;;;14.79;100.00;101044.88;3620004;39;20526;-49
2021/08/04 05:04:44;;;;;;;6.87;3.00;;;;;;;14.82;100.00;101045.84;3622167;39;20548;-54
2021/08/04 05:07:11;;;;;;;9.77;2.60;;;;;;;15.07;100.00;101050.88;3619753;39;20472;-50
2021/08/04 05:09:39;;;;;;;4.30;2.50;;;;;;;15.10;100.00;101049.25;3621910;39;20515;-50
2021/08/04 05:12:07;;;;;;;5.03;2.97;;;;;;;15.24;100.00;101047.00;3596489;39;20518;-52
2021/08/04 05:14:35;;;;;;;4.07;2.60;;;;;;;15.18;100.00;101041.63;3622264;39;20516;-52
2021/08/04 05:17:03;;;;;;;6.13;3.07;;;;;;;15.30;100.00;101048.00;3602540;39;20487;-53
2021/08/04 05:19:30;;;;;;;8.50;2.73;;;;;;;15.18;100.00;101051.16;3620993;39;20519;-52
2021/08/04 05:21:59;;;;;;;5.00;2.60;;;;;;;15.22;100.00;101048.69;3620093;39;20494;-52
2021/08/04 05:24:27;;;;;;;6.43;2.93;;;;;;;15.29;100.00;101048.84;3621688;39;20498;-52
2021/08/04 05:26:54;;;;;;;5.77;2.20;;;;;;;15.28;100.00;101047.94;3601487;39;20877;-53
2021/08/04 05:29:22;;;;;;;11.80;2.83;;;;;;;15.56;100.00;101042.59;3582216;40;20916;-51
2021/08/04 05:31:49;;;;;;;5.30;2.40;;;;;;;15.53;100.00;101040.81;3610861;39;20695;-52
2021/08/04 05:34:17;;;;;;;6.30;2.30;;;;;;;15.48;100.00;101045.91;3621491;39;20833;-52
2021/08/04 05:36:45;;;;;;;3.90;2.33;;;;;;;15.56;100.00;101045.22;3613542;39;20465;-55
2021/08/04 05:39:14;;;;;;;9.50;2.60;;;;;;;15.59;100.00;101046.16;3622107;39;20551;-50
2021/08/04 05:41:42;;;;;;;9.53;3.00;;;;;;;15.64;100.00;101056.72;3619509;39;20479;-50
2021/08/04 05:44:10;;;;;;;9.57;3.23;;;;;;;15.84;100.00;101048.53;3595037;39;20503;-52
2021/08/04 05:46:38;;;;;;;14.63;2.97;;;;;;;15.93;100.00;101048.75;3619346;39;20467;-51
2021/08/04 05:49:05;;;;;;;3.50;2.27;;;;;;;15.95;100.00;101052.31;3619998;39;20520;-52
2021/08/04 05:51:33;;;;;;;5.77;2.40;;;;;;;16.03;100.00;101055.97;3620009;39;20482;-50
2021/08/04 05:54:00;;;;;;;7.70;2.10;;;;;;;15.98;100.00;101052.38;3622119;39;20704;-53
2021/08/04 05:56:29;;;;;;;11.07;2.50;;;;;;;16.10;100.00;101054.38;3620527;39;20684;-53
2021/08/04 05:58:57;;;;;;;4.80;2.60;;;;;;;16.15;100.00;101046.69;3617739;39;20535;-53
2021/08/04 06:01:24;;;;;;;4.00;1.90;;;;;;;16.11;100.00;101048.34;3621007;39;20551;-54
2021/08/04 06:03:52;;;;;;;4.90;2.37;;;;;;;16.18;100.00;101047.63;3611699;39;20525;-48
2021/08/04 06:06:20;;;;;;;3.70;2.20;;;;;;;16.23;100.00;101050.34;3617141;39;20470;-50
2021/08/04 06:08:48;;;;;;;4.10;1.80;;;;;;;16.25;100.00;101046.03;3622238;39;20515;-51
2021/08/04 06:11:15;;;;;;;3.30;2.00;;;;;;;15.97;100.00;101048.00;3593855;39;20847;-53
2021/08/04 06:13:44;;;;;;;3.43;1.90;;;;;;;16.19;100.00;101051.09;3621713;39;20520;-50
2021/08/04 06:16:12;;;;;;;5.27;2.17;;;;;;;16.17;100.00;101048.50;3602668;39;20472;-51
2021/08/04 06:18:40;;;;;;;3.47;1.93;;;;;;;16.35;100.00;101047.13;3616467;39;20503;-54
2021/08/04 06:21:07;;;;;;;4.80;2.47;;;;;;;16.43;100.00;101044.69;3614120;39;20677;-50
2021/08/04 06:23:36;;;;;;;4.50;1.87;;;;;;;16.41;100.00;101052.47;3594719;39;20816;-52
2021/08/04 06:26:03;;;;;;;8.03;3.13;;;;;;;16.42;100.00;101049.03;3607944;39;20529;-50
2021/08/04 06:28:42;;;;;;;3.87;2.00;;;;;;;16.31;100.00;101056.59;3616906;39;21382;-49
2021/08/04 06:31:11;;;;;;;4.40;2.03;;;;;;;16.39;100.00;101058.50;3619038;39;20560;-54
2021/08/04 06:33:39;;;;;;;4.13;1.90;;;;;;;16.32;100.00;101053.13;3621077;39;20565;-53
2021/08/04 06:36:06;;;;;;;3.73;1.93;;;;;;;16.47;100.00;101056.97;3620505;39;20471;-54
2021/08/04 06:38:34;;;;;;;5.67;2.00;;;;;;;16.32;100.00;101052.28;3620499;39;20823;-52
2021/08/04 06:41:02;;;;;;;3.00;1.93;;;;;;;16.49;100.00;101060.47;3620312;39;20512;-54
2021/08/04 06:43:29;;;;;;;11.50;6.30;;;;;;;16.55;100.00;101055.38;3621193;39;20504;-51
2021/08/04 06:45:57;;;;;;;6.23;3.03;;;;;;;16.55;100.00;101055.38;3616540;39;20519;-52
2021/08/04 06:48:26;;;;;;;6.80;2.23;;;;;;;16.66;100.00;101057.38;3620496;39;20505;-52
2021/08/04 06:50:54;;;;;;;5.53;2.47;;;;;;;16.70;100.00;101049.63;3620911;39;20504;-53
2021/08/04 06:53:21;;;;;;;7.03;2.30;;;;;;;16.67;100.00;101051.31;3621056;39;20497;-51
2021/08/04 06:55:49;;;;;;;7.83;2.87;;;;;;;16.78;100.00;101042.00;3618879;39;20475;-51
2021/08/04 06:58:16;;;;;;;8.07;4.70;;;;;;;16.88;100.00;101056.09;3621384;39;20593;-54
2021/08/04 07:00:44;;;;;;;13.17;8.07;;;;;;;17.04;100.00;101056.41;3617590;39;20484;-52
2021/08/04 07:03:12;;;;;;;34.23;20.90;;;;;;;17.15;100.00;101054.91;3621373;39;20511;-53
2021/08/04 07:05:41;;;;;;;12.17;8.30;;;;;;;17.05;100.00;101050.34;3619265;39;21018;-52
2021/08/04 07:08:09;;;;;;;36.20;20.27;;;;;;;17.09;100.00;101047.84;3620741;39;20514;-53
2021/08/04 07:10:52;;;;;;;13.20;7.23;;;;;;;17.32;100.00;101049.13;3607563;39;20496;-57
2021/08/04 07:13:22;;;;;;;10.57;6.20;;;;;;;17.50;100.00;101053.78;3611181;39;20497;-51
2021/08/04 07:15:50;;;;;;;4.17;2.20;;;;;;;17.16;100.00;101042.75;3582255;40;20488;-51
2021/08/04 07:18:18;;;;;;;4.17;2.03;;;;;;;16.88;100.00;101046.53;3607719;39;20501;-54
2021/08/04 07:20:47;;;;;;;5.63;2.13;;;;;;;17.04;100.00;101053.81;3602711;39;20478;-52
2021/08/04 07:23:15;;;;;;;5.33;2.13;;;;;;;17.12;100.00;101052.22;3610277;39;20512;-53
2021/08/04 07:25:43;;;;;;;3.90;2.10;;;;;;;17.24;100.00;101057.66;3609709;39;20532;-53
2021/08/04 07:28:11;;;;;;;4.17;2.17;;;;;;;17.33;100.00;101051.75;3584200;39;20502;-53
2021/08/04 07:30:39;;;;;;;7.93;1.70;;;;;;;17.30;100.00;101059.53;3610753;39;20517;-52
2021/08/04 07:33:06;;;;;;;6.53;2.07;;;;;;;17.06;100.00;101062.53;3611186;39;20771;-48
2021/08/04 07:35:34;;;;;;;7.63;2.00;;;;;;;17.17;100.00;101060.16;3611285;39;20499;-50
2021/08/04 07:38:03;;;;;;;4.80;2.33;;;;;;;17.41;100.00;101063.22;3609870;39;20479;-53
2021/08/04 07:40:31;;;;;;;6.17;3.33;;;;;;;17.51;100.00;101064.25;3611586;39;20508;-51
2021/08/04 07:42:59;;;;;;;6.93;2.43;;;;;;;17.46;100.00;101065.00;3610369;39;20474;-51
2021/08/04 07:45:26;;;;;;;7.77;2.10;;;;;;;17.51;100.00;101066.88;3609890;39;20504;-50
2021/08/04 07:47:54;;;;;;;5.37;1.77;;;;;;;17.56;100.00;101074.78;3607115;39;20720;-53
2021/08/04 07:50:25;;;;;;;4.97;2.17;;;;;;;17.71;100.00;101065.44;3603582;39;20537;-53
2021/08/04 07:52:52;;;;;;;7.60;2.20;;;;;;;17.86;100.00;101068.34;3593444;39;20629;-53
2021/08/04 07:55:22;;;;;;;4.07;2.40;;;;;;;17.91;100.00;101071.00;3602270;39;20555;-57
2021/08/04 07:57:50;;;;;;;5.00;2.57;;;;;;;17.75;100.00;101070.72;3621362;39;20513;-51
2021/08/04 08:00:18;;;;;;;10.50;2.70;;;;;;;17.83;100.00;101068.25;3621028;39;20489;-54
2021/08/04 08:02:45;;;;;;;9.20;2.57;;;;;;;17.90;100.00;101067.50;3622515;39;20836;-52
2021/08/04 08:05:14;;;;;;;4.60;2.33;;;;;;;17.88;100.00;101064.00;3622500;39;20499;-53
2021/08/04 08:07:48;;;;;;;3.00;1.80;;;;;;;17.67;100.00;101067.13;3620460;39;20470;-54
2021/08/04 08:10:18;;;;;;;5.60;1.93;;;;;;;17.82;100.00;101071.72;3622373;39;20815;-53
2021/08/04 08:12:47;;;;;;;5.37;2.13;;;;;;;17.75;100.00;101069.88;3621359;39;20466;-50
2021/08/04 08:15:15;;;;;;;4.27;1.80;;;;;;;17.77;100.00;101063.84;3620650;39;20508;-52
2021/08/04 08:17:44;;;;;;;9.17;3.53;;;;;;;17.76;100.00;101062.09;3616183;39;20471;-50
2021/08/04 08:20:13;;;;;;;4.37;1.97;;;;;;;17.81;100.00;101067.38;3622115;39;20508;-53
2021/08/04 08:22:40;;;;;;;3.20;1.77;;;;;;;17.79;100.00;101063.88;3620383;39;20526;-51
2021/08/04 08:25:11;;;;;;;5.80;2.30;;;;;;;17.90;100.00;101064.03;3621085;39;20500;-54
2021/08/04 08:27:39;;;;;;;4.67;1.90;;;;;;;17.95;100.00;101070.22;3593235;39;20532;-51
2021/08/04 08:30:11;;;;;;;5.07;3.10;;;;;;;18.02;100.00;101071.19;3611652;39;20526;-52
2021/08/04 08:32:38;;;;;;;6.10;2.40;;;;;;;17.87;100.00;101067.47;3618157;39;20512;-53
2021/08/04 08:35:08;;;;;;;6.43;2.40;;;;;;;17.96;100.00;101064.13;3622035;39;20554;-51
2021/08/04 08:37:36;;;;;;;4.10;2.07;;;;;;;17.86;100.00;101073.56;3621112;39;20502;-50
2021/08/04 08:40:04;;;;;;;25.87;8.43;;;;;;;17.82;100.00;101061.28;3621725;39;20500;-50
2021/08/04 08:42:32;;;;;;;4.13;2.23;;;;;;;17.79;100.00;101062.13;3603170;39;20703;-52
2021/08/04 08:45:00;;;;;;;6.97;2.67;;;;;;;17.94;100.00;101061.50;3618912;39;20498;-50
2021/08/04 08:47:29;;;;;;;10.47;4.30;;;;;;;17.85;100.00;101057.84;3617593;39;20488;-54
2021/08/04 08:49:58;;;;;;;7.50;4.33;;;;;;;18.13;100.00;101058.31;3622067;39;20511;-51
2021/08/04 08:52:25;;;;;;;6.33;3.10;;;;;;;18.20;100.00;101057.59;3619284;39;20490;-50
2021/08/04 08:54:53;;;;;;;15.60;5.83;;;;;;;18.32;100.00;101054.25;3622218;39;20506;-55
2021/08/04 08:57:21;;;;;;;5.60;2.97;;;;;;;18.30;100.00;101056.84;3620407;39;20464;-52
2021/08/04 08:59:48;;;;;;;8.57;3.37;;;;;;;18.47;100.00;101056.22;3622286;39;20498;-53
2021/08/04 09:02:16;;;;;;;6.03;2.23;;;;;;;18.56;100.00;101052.84;3621002;39;20723;-55
2021/08/04 09:04:58;;;;;;;20.90;7.70;;;;;;;18.46;100.00;101057.06;3609461;39;20475;-53
2021/08/04 09:07:34;;;;;;;4.77;2.60;;;;;;;18.62;100.00;101052.94;3613168;39;20470;-54
2021/08/04 09:10:03;;;;;;;4.33;2.27;;;;;;;18.69;100.00;101057.38;3621757;39;20682;-49
2021/08/04 09:12:31;;;;;;;9.23;2.70;;;;;;;18.79;100.00;101054.88;3620576;39;20502;-51
2021/08/04 09:14:59;;;;;;;6.53;3.30;;;;;;;19.01;100.00;101056.88;3621832;39;20493;-55
2021/08/04 09:17:26;;;;;;;6.50;2.80;;;;;;;19.02;100.00;101061.28;3621085;39;20493;-54
2021/08/04 09:19:54;;;;;;;4.10;2.50;;;;;;;19.06;100.00;101061.34;3621795;39;20516;-53
2021/08/04 09:22:25;;;;;;;7.60;3.17;;;;;;;19.18;100.00;101068.44;3607411;39;20496;-50
2021/08/04 09:25:03;;;;;;;6.67;2.57;;;;;;;19.40;100.00;101061.69;3622036;39;20483;-52
2021/08/04 09:27:45;;;;;;;10.10;3.17;;;;;;;19.23;100.00;101062.38;3594209;39;20505;-51
2021/08/04 09:30:16;;;;;;;6.00;2.30;;;;;;;19.34;100.00;101056.38;3607279;39;20505;-56
2021/08/04 09:32:44;;;;;;;5.90;2.47;;;;;;;19.40;100.00;101052.13;3620851;39;20475;-50
2021/08/04 09:35:14;;;;;;;4.43;2.10;;;;;;;19.38;100.00;101052.97;3620830;39;20836;-53
2021/08/04 09:37:44;;;;;;;4.07;1.87;;;;;;;19.27;100.00;101056.34;3617842;39;20481;-54
2021/08/04 09:40:15;;;;;;;3.53;2.27;;;;;;;19.53;100.00;101058.31;3621780;39;20510;-53
2021/08/04 09:42:51;;;;;;;4.80;2.33;;;;;;;19.22;100.00;101052.78;3621180;39;20691;-54
2021/08/04 09:45:21;;;;;;;4.00;2.03;;;;;;;19.13;100.00;101055.31;3620218;39;20666;-52
2021/08/04 09:48:04;;;;;;;10.20;3.90;;;;;;;19.28;100.00;101058.06;3621533;39;20520;-53
2021/08/04 09:50:53;;;;;;;5.03;2.80;;;;;;;19.21;100.00;101063.22;3617466;39;20510;-55
2021/08/04 09:53:25;;;;;;;9.00;2.20;;;;;;;19.02;100.00;101066.50;3621663;39;20580;-53
2021/08/04 09:56:12;;;;;;;5.47;2.50;;;;;;;19.12;100.00;101058.78;3620631;39;20475;-53
2021/08/04 09:58:43;;;;;;;14.80;6.90;;;;;;;19.47;100.00;101054.78;3621620;39;20517;-54
2021/08/04 10:01:13;;;;;;;3.93;2.40;;;;;;;19.40;100.00;101052.13;3619430;39;20473;-51
2021/08/04 10:04:03;;;;;;;6.83;4.27;;;;;;;19.55;100.00;101051.34;3621566;39;20509;-54
2021/08/04 10:06:34;;;;;;;6.37;3.17;;;;;;;19.64;100.00;101049.69;3619252;39;20488;-55
2021/08/04 10:09:03;;;;;;;5.13;1.70;;;;;;;19.59;100.00;101051.41;3621644;39;20508;-53
2021/08/04 10:11:31;;;;;;;5.00;2.60;;;;;;;19.98;100.00;101044.75;3619197;39;20477;-52
2021/08/04 10:14:00;;;;;;;6.90;2.37;;;;;;;20.01;100.00;101042.19;3621512;39;20514;-54
2021/08/04 10:16:31;;;;;;;143.57;86.30;;;;;;;20.15;100.00;101039.63;3619287;39;20478;-53
2021/08/04 10:19:00;;;;;;;11.40;6.83;;;;;;;19.61;100.00;101041.81;3621515;39;20582;-52
2021/08/04 10:21:27;;;;;;;7.80;4.40;;;;;;;19.74;100.00;101033.19;3616590;39;20502;-52
2021/08/04 10:23:55;;;;;;;23.03;9.77;;;;;;;19.89;100.00;101036.81;3621506;39;20491;-52
2021/08/04 10:26:24;;;;;;;6.33;3.23;;;;;;;19.80;100.00;101046.34;3617855;39;20471;-54
2021/08/04 10:28:55;;;;;;;8.97;4.50;;;;;;;19.78;100.00;101042.84;3618564;39;20514;-54
2021/08/04 10:31:24;;;;;;;6.50;3.10;;;;;;;19.67;100.00;101047.09;3619829;39;20464;-55
2021/08/04 10:33:51;;;;;;;11.00;6.30;;;;;;;19.96;100.00;101042.13;3621716;39;20515;-49
2021/08/04 10:36:21;;;;;;;4.60;1.80;;;;;;;20.07;100.00;101042.22;3618473;39;20487;-56
2021/08/04 10:38:50;;;;;;;23.43;8.67;;;;;;;20.00;100.00;101042.16;3621198;39;20504;-55
2021/08/04 10:41:20;;;;;;;10.00;3.80;;;;;;;20.06;100.00;101037.81;3619092;39;20811;-52
2021/08/04 10:43:51;;;;;;;16.70;5.73;;;;;;;20.20;100.00;101034.44;3620996;39;20503;-53
2021/08/04 10:46:37;;;;;;;7.70;3.37;;;;;;;20.27;100.00;101036.22;3619168;39;20470;-54
2021/08/04 10:49:19;;;;;;;9.97;3.40;;;;;;;20.55;100.00;101036.38;3621160;39;20511;-53
2021/08/04 10:52:14;;;;;;;5.07;2.00;;;;;;;20.71;100.00;101034.69;3619077;39;20528;-52
2021/08/04 10:55:03;;;;;;;10.53;2.30;;;;;;;20.84;100.00;101027.78;3621392;39;20492;-54
2021/08/04 10:57:34;;;;;;;4.77;2.10;;;;;;;20.89;100.00;101026.06;3618489;39;20482;-53
2021/08/04 11:00:23;;;;;;;5.13;2.57;;;;;;;20.89;100.00;101022.56;3621041;39;20503;-55
2021/08/04 11:02:51;;;;;;;7.20;3.97;;;;;;;21.14;100.00;101020.88;3620717;39;20479;-49
2021/08/04 11:05:19;;;;;;;8.20;3.43;;;;;;;20.85;100.00;101019.03;3620616;39;20792;-51
2021/08/04 11:08:17;;;;;;;5.87;3.10;;;;;;;20.85;100.00;101028.66;3619347;39;20460;-53
2021/08/04 11:10:46;;;;;;;8.37;3.97;;;;;;;20.94;100.00;101019.94;3567967;40;20615;-55
2021/08/04 11:13:51;;;;;;;12.60;3.70;;;;;;;20.92;100.00;101012.09;3568502;40;20855;-56
2021/08/04 11:16:28;;;;;;;5.73;2.83;;;;;;;20.84;100.00;101011.13;3618793;39;20467;-53
2021/08/04 11:19:05;;;;;;;11.23;3.80;;;;;;;20.97;100.00;101012.94;3627802;39;20511;-54
2021/08/04 11:21:33;;;;;;;5.97;2.60;;;;;;;21.00;100.00;101009.47;3603386;39;20534;-51
2021/08/04 11:24:01;;;;;;;6.00;1.97;;;;;;;20.96;100.00;101013.81;3610490;39;20496;-54
2021/08/04 11:26:32;;;;;;;16.20;8.43;;;;;;;21.08;100.00;101004.25;3605700;39;20461;-54